createdAt,value
2023-05-20T00:00:11.140Z,98756.16
2023-05-20T00:01:13.207Z,98760.22
2023-05-20T00:02:15.925Z,98754.53
2023-05-20T00:03:18.362Z,98754.31
2023-05-20T00:04:20.541Z,98755.13
2023-05-20T00:05:22.529Z,98750.28
2023-05-20T00:06:24.504Z,98755.69
2023-05-20T00:07:26.599Z,98751.38
2023-05-20T00:08:28.431Z,98751.63
2023-05-20T00:09:30.290Z,98752.22
2023-05-20T00:10:32.168Z,98751.41
2023-05-20T00:11:34.120Z,98749.78
2023-05-20T00:12:36.042Z,98752.50
2023-05-20T00:13:39.142Z,98749.28
2023-05-20T00:14:41.005Z,98750.09
2023-05-20T00:15:43.049Z,98748.75
2023-05-20T00:16:45.013Z,98748.75
2023-05-20T00:17:46.972Z,98750.94
2023-05-20T00:18:48.905Z,98746.88
2023-05-20T00:19:51.084Z,98740.66
2023-05-20T00:20:54.453Z,98746.59
2023-05-20T00:21:57.945Z,98742.31
2023-05-20T00:23:00.037Z,98749.59
2023-05-20T00:24:01.929Z,98747.69
2023-05-20T00:25:04.205Z,98744.47
2023-05-20T00:26:06.092Z,98739.09
2023-05-20T00:27:07.981Z,98741.25
2023-05-20T00:28:09.931Z,98740.97
2023-05-20T00:29:11.886Z,98746.63
2023-05-20T00:30:14.117Z,98745.81
2023-05-20T00:31:16.086Z,98743.41
2023-05-20T00:32:18.096Z,98746.63
2023-05-20T00:33:20.047Z,98741.53
2023-05-20T00:34:21.942Z,98744.22
2023-05-20T00:35:23.899Z,98741.00
2023-05-20T00:36:25.840Z,98748.81
2023-05-20T00:37:28.137Z,98741.81
2023-05-20T00:38:30.002Z,98740.72
2023-05-20T00:39:31.960Z,98729.41
2023-05-20T00:40:33.809Z,98733.16
2023-05-20T00:41:36.079Z,98742.91
2023-05-20T00:42:37.963Z,98745.59
2023-05-20T00:43:39.888Z,98734.00
2023-05-20T00:44:41.937Z,98734.81
2023-05-20T00:45:43.904Z,98737.75
2023-05-20T00:46:48.122Z,98729.41
2023-05-20T00:47:50.098Z,98727.78
2023-05-20T00:48:52.747Z,98728.88
2023-05-20T00:49:54.949Z,98726.16
2023-05-20T00:50:56.851Z,98726.97
2023-05-20T00:51:59.028Z,98729.66
2023-05-20T00:53:01.574Z,98729.94
2023-05-20T00:54:03.783Z,98729.94
2023-05-20T00:55:06.122Z,98724.56
2023-05-20T00:56:09.096Z,98733.75
2023-05-20T00:57:11.866Z,98724.03
2023-05-20T00:58:14.207Z,98721.34
2023-05-20T00:59:16.736Z,98729.16
2023-05-20T01:01:19.526Z,98719.75
2023-05-20T01:02:22.143Z,98718.66
2023-05-20T01:03:24.219Z,98716.75
2023-05-20T01:04:26.919Z,98718.38
2023-05-20T01:05:28.827Z,98712.44
2023-05-20T01:06:30.946Z,98715.97
2023-05-20T01:07:34.036Z,98712.75
2023-05-20T01:08:36.022Z,98719.22
2023-05-20T01:09:37.895Z,98718.94
2023-05-20T01:10:47.240Z,98721.63
2023-05-20T01:11:59.289Z,98725.13
2023-05-20T01:13:10.089Z,98718.94
2023-05-20T01:14:16.511Z,98718.13
2023-05-20T01:15:21.657Z,98715.72
2023-05-20T01:16:25.164Z,98721.13
2023-05-20T01:17:31.277Z,98721.63
2023-05-20T01:18:34.969Z,98714.91
2023-05-20T01:19:45.384Z,98712.75
2023-05-20T01:20:54.012Z,98721.13
2023-05-20T01:21:57.866Z,98719.50
2023-05-20T01:23:00.066Z,98720.59
2023-05-20T01:24:02.701Z,98716.81
2023-05-20T01:25:05.336Z,98717.09
2023-05-20T01:26:08.357Z,98722.50
2023-05-20T01:27:13.854Z,98724.91
2023-05-20T01:28:17.982Z,98718.16
2023-05-20T01:29:20.180Z,98724.34
2023-05-20T01:30:22.577Z,98727.03
2023-05-20T01:31:32.621Z,98723.53
2023-05-20T01:32:50.473Z,98721.66
2023-05-20T01:33:58.542Z,98714.66
2023-05-20T01:35:02.108Z,98720.84
2023-05-20T01:36:06.559Z,98718.16
2023-05-20T01:37:10.567Z,98715.75
2023-05-20T01:38:15.908Z,98720.31
2023-05-20T01:39:18.239Z,98722.22
2023-05-20T01:40:21.621Z,98713.34
2023-05-20T01:41:26.943Z,98719.53
2023-05-20T01:42:29.656Z,98724.91
2023-05-20T01:43:32.097Z,98718.72
2023-05-20T01:44:34.230Z,98721.41
2023-05-20T01:45:36.621Z,98718.19
2023-05-20T01:46:38.681Z,98716.31
2023-05-20T01:47:40.907Z,98707.13
2023-05-20T01:48:43.143Z,98712.53
2023-05-20T01:49:46.625Z,98713.34
2023-05-20T01:50:48.766Z,98701.22
2023-05-20T01:51:50.671Z,98704.72
2023-05-20T01:52:52.811Z,98705.53
2023-05-20T01:53:54.713Z,98702.84
2023-05-20T01:54:56.854Z,98702.03
2023-05-20T01:55:58.836Z,98707.72
2023-05-20T01:57:01.929Z,98698.81
2023-05-20T01:58:03.867Z,98707.72
2023-05-20T01:59:05.864Z,98706.91
2023-05-20T02:00:09.692Z,98698.53
2023-05-20T02:01:11.687Z,98700.41
2023-05-20T02:02:14.737Z,98703.41
2023-05-20T02:03:16.809Z,98703.41
2023-05-20T02:04:19.277Z,98700.41
2023-05-20T02:05:21.333Z,98705.28
2023-05-20T02:06:23.163Z,98699.38
2023-05-20T02:07:25.030Z,98698.81
2023-05-20T02:08:26.865Z,98703.69
2023-05-20T02:09:28.807Z,98698.56
2023-05-20T02:10:30.660Z,98689.13
2023-05-20T02:11:32.440Z,98701.78
2023-05-20T02:12:34.511Z,98700.19
2023-05-20T02:13:36.486Z,98698.56
2023-05-20T02:14:38.732Z,98699.09
2023-05-20T02:15:44.783Z,98704.50
2023-05-20T02:16:47.724Z,98703.94
2023-05-20T02:17:49.708Z,98696.13
2023-05-20T02:18:53.075Z,98701.53
2023-05-20T02:19:55.079Z,98705.03
2023-05-20T02:20:56.931Z,98700.44
2023-05-20T02:21:58.877Z,98700.72
2023-05-20T02:23:00.660Z,98703.13
2023-05-20T02:24:02.590Z,98699.91
2023-05-20T02:25:05.086Z,98697.22
2023-05-20T02:26:07.141Z,98694.53
2023-05-20T02:27:09.341Z,98697.22
2023-05-20T02:28:11.311Z,98691.84
2023-05-20T02:29:13.271Z,98686.97
2023-05-20T02:30:15.577Z,98695.63
2023-05-20T02:31:17.828Z,98692.94
2023-05-20T02:32:20.958Z,98693.72
2023-05-20T02:33:23.004Z,98688.91
2023-05-20T02:34:26.292Z,98695.63
2023-05-20T02:35:28.365Z,98692.94
2023-05-20T02:36:32.472Z,98692.94
2023-05-20T02:37:34.532Z,98692.41
2023-05-20T02:38:36.392Z,98689.72
2023-05-20T02:39:38.316Z,98692.41
2023-05-20T02:40:40.542Z,98688.09
2023-05-20T02:41:42.448Z,98685.41
2023-05-20T02:42:44.389Z,98684.31
2023-05-20T02:43:46.376Z,98682.72
2023-05-20T02:44:48.272Z,98686.22
2023-05-20T02:45:50.265Z,98681.91
2023-05-20T02:46:53.420Z,98690.28
2023-05-20T02:47:55.590Z,98688.38
2023-05-20T02:48:57.468Z,98685.69
2023-05-20T02:49:59.451Z,98686.50
2023-05-20T02:51:01.562Z,98685.69
2023-05-20T02:52:04.547Z,98691.88
2023-05-20T02:53:07.118Z,98689.47
2023-05-20T02:54:09.183Z,98689.47
2023-05-20T02:55:11.813Z,98688.13
2023-05-20T02:56:13.947Z,98687.03
2023-05-20T02:57:16.349Z,98689.72
2023-05-20T02:58:18.268Z,98686.22
2023-05-20T02:59:20.184Z,98682.72
2023-05-20T03:00:23.587Z,98681.66
2023-05-20T03:01:25.605Z,98690.00
2023-05-20T03:02:27.854Z,98688.13
2023-05-20T03:03:30.018Z,98690.81
2023-05-20T03:04:32.287Z,98695.41
2023-05-20T03:05:37.825Z,98694.59
2023-05-20T03:06:44.410Z,98693.78
2023-05-20T03:07:48.719Z,98691.63
2023-05-20T03:08:51.210Z,98687.31
2023-05-20T03:09:53.059Z,98688.13
2023-05-20T03:10:55.017Z,98690.28
2023-05-20T03:11:56.895Z,98690.59
2023-05-20T03:12:58.735Z,98682.78
2023-05-20T03:14:00.840Z,98688.69
2023-05-20T03:15:03.972Z,98692.19
2023-05-20T03:16:06.278Z,98692.19
2023-05-20T03:17:09.678Z,98691.38
2023-05-20T03:18:12.756Z,98692.47
2023-05-20T03:19:14.882Z,98686.28
2023-05-20T03:20:17.817Z,98692.47
2023-05-20T03:21:20.012Z,98688.16
2023-05-20T03:22:21.952Z,98688.16
2023-05-20T03:23:23.964Z,98688.16
2023-05-20T03:24:25.948Z,98685.47
2023-05-20T03:25:27.944Z,98685.47
2023-05-20T03:26:30.672Z,98678.47
2023-05-20T03:27:32.489Z,98685.75
2023-05-20T03:28:34.361Z,98679.56
2023-05-20T03:29:36.193Z,98682.25
2023-05-20T03:30:38.107Z,98683.06
2023-05-20T03:31:40.168Z,98684.97
2023-05-20T03:32:43.277Z,98686.84
2023-05-20T03:33:46.224Z,98690.63
2023-05-20T03:34:49.180Z,98687.94
2023-05-20T03:35:51.279Z,98691.44
2023-05-20T03:36:53.421Z,98687.13
2023-05-20T03:37:55.356Z,98687.94
2023-05-20T03:38:57.167Z,98687.38
2023-05-20T03:39:59.105Z,98690.09
2023-05-20T03:41:01.011Z,98698.16
2023-05-20T03:42:02.917Z,98693.88
2023-05-20T03:43:04.864Z,98696.28
2023-05-20T03:44:06.822Z,98693.06
2023-05-20T03:45:09.319Z,98697.66
2023-05-20T03:46:11.386Z,98685.78
2023-05-20T03:47:13.191Z,98696.84
2023-05-20T03:48:15.125Z,98695.75
2023-05-20T03:49:17.315Z,98691.16
2023-05-20T03:50:19.308Z,98697.13
2023-05-20T03:51:21.142Z,98695.22
2023-05-20T03:52:23.630Z,98693.34
2023-05-20T03:53:25.641Z,98690.66
2023-05-20T03:54:28.142Z,98690.94
2023-05-20T03:55:30.284Z,98685.81
2023-05-20T03:56:32.149Z,98692.81
2023-05-20T03:57:34.135Z,98692.81
2023-05-20T03:58:38.601Z,98695.50
2023-05-20T03:59:40.986Z,98695.22
2023-05-20T04:00:43.019Z,98697.41
2023-05-20T04:01:45.178Z,98693.91
2023-05-20T04:02:47.451Z,98698.50
2023-05-20T04:03:49.386Z,98698.50
2023-05-20T04:04:57.666Z,98699.56
2023-05-20T04:05:59.602Z,98695.78
2023-05-20T04:07:01.586Z,98697.97
2023-05-20T04:08:05.256Z,98692.59
2023-05-20T04:09:07.120Z,98696.88
2023-05-20T04:10:10.127Z,98700.38
2023-05-20T04:11:12.083Z,98698.78
2023-05-20T04:12:14.099Z,98692.84
2023-05-20T04:13:16.371Z,98697.97
2023-05-20T04:14:18.748Z,98691.78
2023-05-20T04:15:23.868Z,98690.97
2023-05-20T04:16:26.277Z,98699.84
2023-05-20T04:17:30.287Z,98691.22
2023-05-20T04:18:32.179Z,98695.53
2023-05-20T04:19:35.089Z,98702.81
2023-05-20T04:20:36.882Z,98692.31
2023-05-20T04:21:40.213Z,98696.63
2023-05-20T04:22:42.011Z,98694.19
2023-05-20T04:23:44.088Z,98696.06
2023-05-20T04:24:46.105Z,98695.00
2023-05-20T04:25:49.077Z,98697.41
2023-05-20T04:26:52.407Z,98689.88
2023-05-20T04:27:54.277Z,98690.41
2023-05-20T04:28:59.390Z,98691.50
2023-05-20T04:30:02.660Z,98689.63
2023-05-20T04:31:04.962Z,98688.81
2023-05-20T04:32:08.022Z,98693.38
2023-05-20T04:33:11.290Z,98688.81
2023-05-20T04:34:15.238Z,98689.06
2023-05-20T04:35:17.529Z,98688.81
2023-05-20T04:36:19.344Z,98685.56
2023-05-20T04:37:21.171Z,98695.00
2023-05-20T04:38:23.248Z,98684.47
2023-05-20T04:39:25.065Z,98680.19
2023-05-20T04:40:27.475Z,98684.47
2023-05-20T04:41:29.489Z,98684.47
2023-05-20T04:42:31.370Z,98686.13
2023-05-20T04:43:38.833Z,98680.72
2023-05-20T04:44:42.287Z,98683.69
2023-05-20T04:45:46.112Z,98683.69
2023-05-20T04:46:48.271Z,98682.06
2023-05-20T04:47:50.825Z,98674.28
2023-05-20T04:48:53.948Z,98676.97
2023-05-20T04:49:57.933Z,98676.97
2023-05-20T04:51:00.072Z,98674.00
2023-05-20T04:52:02.127Z,98680.75
2023-05-20T04:53:04.434Z,98678.56
2023-05-20T04:54:06.407Z,98671.06
2023-05-20T04:55:10.565Z,98680.75
2023-05-20T04:56:13.559Z,98671.56
2023-05-20T04:57:15.426Z,98680.75
2023-05-20T04:58:17.786Z,98679.13
2023-05-20T04:59:19.668Z,98671.06
2023-05-20T05:00:21.629Z,98675.34
2023-05-20T05:01:23.530Z,98671.88
2023-05-20T05:02:25.894Z,98678.34
2023-05-20T05:03:28.100Z,98680.22
2023-05-20T05:04:30.238Z,98667.28
2023-05-20T05:05:32.363Z,98681.03
2023-05-20T05:06:34.633Z,98677.53
2023-05-20T05:07:36.605Z,98675.66
2023-05-20T05:08:38.432Z,98679.13
2023-05-20T05:09:40.329Z,98679.41
2023-05-20T05:10:42.308Z,98678.34
2023-05-20T05:11:44.245Z,98676.44
2023-05-20T05:12:46.371Z,98665.13
2023-05-20T05:13:48.275Z,98672.41
2023-05-20T05:14:52.218Z,98667.81
2023-05-20T05:16:01.472Z,98673.19
2023-05-20T05:17:03.902Z,98669.44
2023-05-20T05:18:06.258Z,98675.09
2023-05-20T05:19:08.792Z,98673.19
2023-05-20T05:20:11.146Z,98667.81
2023-05-20T05:21:13.332Z,98668.66
2023-05-20T05:22:15.258Z,98669.69
2023-05-20T05:23:17.139Z,98663.25
2023-05-20T05:24:19.107Z,98660.81
2023-05-20T05:25:21.041Z,98663.50
2023-05-20T05:26:22.916Z,98662.44
2023-05-20T05:27:24.788Z,98667.81
2023-05-20T05:28:26.712Z,98661.63
2023-05-20T05:29:28.830Z,98667.81
2023-05-20T05:30:30.779Z,98668.91
2023-05-20T05:31:32.620Z,98669.69
2023-05-20T05:32:35.329Z,98662.72
2023-05-20T05:33:37.496Z,98665.13
2023-05-20T05:34:39.483Z,98670.50
2023-05-20T05:35:44.516Z,98665.13
2023-05-20T05:36:46.737Z,98667.00
2023-05-20T05:37:48.613Z,98663.25
2023-05-20T05:38:51.038Z,98671.34
2023-05-20T05:39:53.265Z,98665.13
2023-05-20T05:40:55.092Z,98662.44
2023-05-20T05:41:56.933Z,98661.38
2023-05-20T05:42:58.951Z,98654.09
2023-05-20T05:44:01.195Z,98657.59
2023-05-20T05:45:03.279Z,98654.09
2023-05-20T05:46:05.326Z,98649.50
2023-05-20T05:47:07.855Z,98655.69
2023-05-20T05:48:10.027Z,98653.00
2023-05-20T05:49:12.089Z,98653.28
2023-05-20T05:50:14.261Z,98660.28
2023-05-20T05:51:16.306Z,98648.69
2023-05-20T05:52:18.311Z,98649.50
2023-05-20T05:53:20.199Z,98651.13
2023-05-20T05:54:22.191Z,98647.34
2023-05-20T05:55:24.503Z,98651.13
2023-05-20T05:56:26.343Z,98651.13
2023-05-20T05:57:28.340Z,98647.34
2023-05-20T05:58:30.437Z,98647.63
2023-05-20T05:59:32.338Z,98656.50
2023-05-20T06:00:34.716Z,98655.41
2023-05-20T06:01:37.716Z,98654.63
2023-05-20T06:02:39.855Z,98659.72
2023-05-20T06:03:42.069Z,98658.09
2023-05-20T06:04:44.224Z,98660.81
2023-05-20T06:05:47.435Z,98654.63
2023-05-20T06:06:49.630Z,98653.53
2023-05-20T06:07:53.967Z,98647.06
2023-05-20T06:08:56.028Z,98647.84
2023-05-20T06:09:58.718Z,98647.84
2023-05-20T06:11:00.659Z,98649.22
2023-05-20T06:12:02.991Z,98642.75
2023-05-20T06:13:04.865Z,98646.78
2023-05-20T06:14:06.678Z,98647.84
2023-05-20T06:15:09.458Z,98645.97
2023-05-20T06:16:11.360Z,98647.84
2023-05-20T06:17:13.295Z,98652.16
2023-05-20T06:18:15.313Z,98646.78
2023-05-20T06:19:17.189Z,98644.06
2023-05-20T06:20:19.412Z,98633.03
2023-05-20T06:21:21.313Z,98638.44
2023-05-20T06:22:23.230Z,98632.25
2023-05-20T06:23:25.633Z,98633.84
2023-05-20T06:24:27.507Z,98635.47
2023-05-20T06:25:29.588Z,98646.78
2023-05-20T06:26:31.662Z,98633.84
2023-05-20T06:27:33.679Z,98636.25
2023-05-20T06:28:35.617Z,98636.00
2023-05-20T06:29:37.773Z,98651.09
2023-05-20T06:30:39.627Z,98632.22
2023-05-20T06:31:41.428Z,98629.53
2023-05-20T06:32:43.621Z,98625.22
2023-05-20T06:33:46.229Z,98641.91
2023-05-20T06:34:48.064Z,98633.84
2023-05-20T06:35:49.922Z,98630.84
2023-05-20T06:36:51.773Z,98636.25
2023-05-20T06:37:54.031Z,98634.34
2023-05-20T06:38:56.113Z,98636.75
2023-05-20T06:39:58.130Z,98631.38
2023-05-20T06:41:00.024Z,98626.78
2023-05-20T06:42:01.863Z,98623.00
2023-05-20T06:43:03.722Z,98631.09
2023-05-20T06:44:07.262Z,98625.41
2023-05-20T06:45:10.560Z,98623.53
2023-05-20T06:46:12.537Z,98627.03
2023-05-20T06:47:18.353Z,98620.56
2023-05-20T06:48:20.267Z,98626.75
2023-05-20T06:49:22.538Z,98625.16
2023-05-20T06:50:25.142Z,98618.41
2023-05-20T06:51:28.627Z,98609.78
2023-05-20T06:52:30.481Z,98614.09
2023-05-20T06:53:32.638Z,98606.53
2023-05-20T06:54:39.928Z,98619.72
2023-05-20T06:55:41.794Z,98617.31
2023-05-20T06:56:44.392Z,98618.09
2023-05-20T06:57:46.433Z,98619.19
2023-05-20T06:58:48.620Z,98625.38
2023-05-20T06:59:51.979Z,98616.00
2023-05-20T07:00:53.896Z,98620.81
2023-05-20T07:01:55.940Z,98617.09
2023-05-20T07:02:57.906Z,98616.59
2023-05-20T07:04:00.087Z,98621.19
2023-05-20T07:05:02.000Z,98618.53
2023-05-20T07:06:03.838Z,98611.56
2023-05-20T07:07:05.900Z,98616.97
2023-05-20T07:08:08.212Z,98615.13
2023-05-20T07:09:10.119Z,98613.03
2023-05-20T07:10:14.599Z,98619.25
2023-05-20T07:11:16.468Z,98616.84
2023-05-20T07:12:19.715Z,98615.00
2023-05-20T07:13:24.382Z,98619.06
2023-05-20T07:14:26.368Z,98614.50
2023-05-20T07:15:28.556Z,98610.47
2023-05-20T07:16:32.535Z,98602.94
2023-05-20T07:17:35.168Z,98605.38
2023-05-20T07:18:37.096Z,98603.25
2023-05-20T07:19:39.169Z,98602.69
2023-05-20T07:20:41.239Z,98599.25
2023-05-20T07:21:43.136Z,98587.94
2023-05-20T07:22:45.168Z,98606.78
2023-05-20T07:23:47.019Z,98601.97
2023-05-20T07:24:48.963Z,98604.66
2023-05-20T07:25:51.792Z,98595.53
2023-05-20T07:26:53.730Z,98593.94
2023-05-20T07:27:55.985Z,98595.00
2023-05-20T07:28:57.924Z,98596.91
2023-05-20T07:29:59.737Z,98595.84
2023-05-20T07:31:01.696Z,98595.31
2023-05-20T07:32:05.395Z,98599.59
2023-05-20T07:33:07.487Z,98592.91
2023-05-20T07:34:09.667Z,98587.81
2023-05-20T07:35:11.531Z,98591.56
2023-05-20T07:36:13.448Z,98588.88
2023-05-20T07:37:16.221Z,98592.94
2023-05-20T07:38:18.157Z,98595.06
2023-05-20T07:39:20.285Z,98589.69
2023-05-20T07:40:22.146Z,98592.91
2023-05-20T07:41:24.167Z,98585.34
2023-05-20T07:42:26.229Z,98593.72
2023-05-20T07:43:28.561Z,98589.94
2023-05-20T07:44:30.836Z,98586.16
2023-05-20T07:45:33.026Z,98576.75
2023-05-20T07:46:35.987Z,98583.44
2023-05-20T07:47:39.484Z,98581.03
2023-05-20T07:48:41.669Z,98583.44
2023-05-20T07:49:47.221Z,98576.72
2023-05-20T07:50:49.468Z,98576.16
2023-05-20T07:51:51.898Z,98585.81
2023-05-20T07:52:56.836Z,98577.22
2023-05-20T07:53:59.013Z,98583.13
2023-05-20T07:55:01.078Z,98585.78
2023-05-20T07:56:03.446Z,98584.19
2023-05-20T07:57:05.978Z,98582.00
2023-05-20T07:58:08.112Z,98584.13
2023-05-20T07:59:10.191Z,98587.63
2023-05-20T08:00:13.437Z,98577.69
2023-05-20T08:01:15.517Z,98583.34
2023-05-20T08:02:17.760Z,98578.47
2023-05-20T08:03:19.764Z,98577.09
2023-05-20T08:04:22.128Z,98570.38
2023-05-20T08:05:24.072Z,98576.28
2023-05-20T08:06:28.696Z,98574.69
2023-05-20T08:07:32.071Z,98567.97
2023-05-20T08:08:34.762Z,98561.50
2023-05-20T08:09:36.939Z,98558.25
2023-05-20T08:10:38.967Z,98557.69
2023-05-20T08:11:41.141Z,98554.72
2023-05-20T08:12:42.967Z,98553.63
2023-05-20T08:13:44.892Z,98557.16
2023-05-20T08:14:46.753Z,98545.81
2023-05-20T08:15:49.068Z,98546.63
2023-05-20T08:16:53.875Z,98556.53
2023-05-20T08:17:56.953Z,98553.84
2023-05-20T08:18:58.884Z,98553.84
2023-05-20T08:20:02.089Z,98554.91
2023-05-20T08:21:08.146Z,98549.53
2023-05-20T08:22:10.280Z,98551.66
2023-05-20T08:23:12.430Z,98555.44
2023-05-20T08:24:14.605Z,98548.16
2023-05-20T08:25:16.590Z,98545.19
2023-05-20T08:26:18.818Z,98553.78
2023-05-20T08:27:20.743Z,98549.19
2023-05-20T08:28:22.804Z,98547.88
2023-05-20T08:29:24.754Z,98558.34
2023-05-20T08:30:27.552Z,98558.34
2023-05-20T08:31:29.826Z,98561.56
2023-05-20T08:32:32.019Z,98557.50
2023-05-20T08:33:34.158Z,98545.13
2023-05-20T08:34:36.863Z,98557.22
2023-05-20T08:35:40.980Z,98548.06
2023-05-20T08:36:45.169Z,98549.66
2023-05-20T08:37:47.008Z,98553.94
2023-05-20T08:38:49.344Z,98546.72
2023-05-20T08:39:52.990Z,98552.91
2023-05-20T08:40:57.398Z,98549.91
2023-05-20T08:41:59.550Z,98544.53
2023-05-20T08:43:02.088Z,98549.91
2023-05-20T08:44:06.313Z,98543.44
2023-05-20T08:45:12.554Z,98549.06
2023-05-20T08:46:17.414Z,98552.84
2023-05-20T08:47:22.401Z,98551.47
2023-05-20T08:48:27.907Z,98549.59
2023-05-20T08:49:30.222Z,98548.78
2023-05-20T08:50:32.200Z,98554.69
2023-05-20T08:51:37.702Z,98548.25
2023-05-20T08:52:46.381Z,98556.03
2023-05-20T08:53:48.305Z,98547.94
2023-05-20T08:54:52.230Z,98558.44
2023-05-20T08:56:02.988Z,98557.34
2023-05-20T08:57:05.833Z,98554.38
2023-05-20T08:58:08.014Z,98547.09
2023-05-20T08:59:10.387Z,98546.03
2023-05-20T09:00:17.166Z,98549.00
2023-05-20T09:01:23.673Z,98547.91
2023-05-20T09:02:25.906Z,98542.50
2023-05-20T09:03:28.601Z,98544.16
2023-05-20T09:04:30.939Z,98546.03
2023-05-20T09:05:33.581Z,98543.34
2023-05-20T09:06:47.202Z,98542.81
2023-05-20T09:07:49.744Z,98545.50
2023-05-20T09:08:52.649Z,98552.50
2023-05-20T09:09:54.491Z,98553.56
2023-05-20T09:10:56.701Z,98545.50
2023-05-20T09:11:59.747Z,98547.09
2023-05-20T09:13:04.508Z,98548.72
2023-05-20T09:14:06.656Z,98556.50
2023-05-20T09:15:09.699Z,98552.72
2023-05-20T09:16:11.824Z,98547.34
2023-05-20T09:17:14.700Z,98547.03
2023-05-20T09:18:16.681Z,98544.88
2023-05-20T09:19:22.634Z,98549.16
2023-05-20T09:20:26.714Z,98541.38
2023-05-20T09:21:29.948Z,98545.66
2023-05-20T09:22:32.077Z,98539.47
2023-05-20T09:23:37.228Z,98538.38
2023-05-20T09:24:41.428Z,98539.19
2023-05-20T09:25:43.598Z,98539.75
2023-05-20T09:26:46.165Z,98534.59
2023-05-20T09:27:47.981Z,98539.75
2023-05-20T09:28:50.141Z,98544.84
2023-05-20T09:29:52.293Z,98543.75
2023-05-20T09:30:59.834Z,98543.75
2023-05-20T09:32:04.092Z,98535.38
2023-05-20T09:33:07.777Z,98535.38
2023-05-20T09:34:10.050Z,98540.75
2023-05-20T09:35:16.113Z,98539.69
2023-05-20T09:36:20.340Z,98535.09
2023-05-20T09:37:26.258Z,98528.59
2023-05-20T09:38:35.497Z,98526.72
2023-05-20T09:40:00.260Z,98535.06
2023-05-20T09:41:08.331Z,98537.75
2023-05-20T09:42:24.177Z,98535.56
2023-05-20T09:43:26.271Z,98526.97
2023-05-20T09:44:29.033Z,98532.38
2023-05-20T09:45:31.402Z,98526.97
2023-05-20T09:46:34.613Z,98521.59
2023-05-20T09:47:41.027Z,98529.09
2023-05-20T09:48:44.793Z,98529.38
2023-05-20T09:49:49.841Z,98535.56
2023-05-20T09:50:52.840Z,98536.38
2023-05-20T09:51:57.271Z,98512.94
2023-05-20T09:53:05.016Z,98526.41
2023-05-20T09:54:09.026Z,98527.19
2023-05-20T09:55:11.661Z,98521.81
2023-05-20T09:56:14.285Z,98519.91
2023-05-20T09:57:16.405Z,98520.72
2023-05-20T09:58:20.777Z,98521.53
2023-05-20T09:59:24.114Z,98522.31
2023-05-20T10:00:26.239Z,98521.22
2023-05-20T10:01:28.318Z,98513.94
2023-05-20T10:02:31.209Z,98515.56
2023-05-20T10:03:34.453Z,98514.75
2023-05-20T10:04:44.879Z,98512.56
2023-05-20T10:06:34.190Z,98516.31
2023-05-20T10:08:21.871Z,98509.56
2023-05-20T10:09:56.750Z,98507.44
2023-05-20T10:11:36.037Z,98511.22
2023-05-20T10:12:58.783Z,98507.72
2023-05-20T10:14:25.176Z,98501.53
2023-05-20T10:16:12.687Z,98506.63
2023-05-20T10:17:37.890Z,98501.53
2023-05-20T10:19:10.163Z,98498.03
2023-05-20T10:20:12.463Z,98508.00
2023-05-20T10:21:22.675Z,98500.19
2023-05-20T10:22:29.819Z,98496.41
2023-05-20T10:23:31.769Z,98505.31
2023-05-20T10:24:42.869Z,98505.81
2023-05-20T10:25:53.333Z,98500.44
2023-05-20T10:26:56.224Z,98508.53
2023-05-20T10:28:09.190Z,98498.25
2023-05-20T10:29:22.713Z,98504.44
2023-05-20T10:30:24.709Z,98493.97
2023-05-20T10:31:27.671Z,98495.56
2023-05-20T10:32:32.487Z,98494.47
2023-05-20T10:33:45.934Z,98499.56
2023-05-20T10:34:51.212Z,98491.47
2023-05-20T10:35:54.899Z,98492.28
2023-05-20T10:36:57.612Z,98485.81
2023-05-20T10:38:12.147Z,98480.66
2023-05-20T10:39:18.963Z,98477.41
2023-05-20T10:40:23.179Z,98477.41
2023-05-20T10:41:30.275Z,98476.31
2023-05-20T10:42:32.115Z,98477.66
2023-05-20T10:43:34.176Z,98476.88
2023-05-20T10:44:49.445Z,98478.97
2023-05-20T10:45:57.655Z,98485.19
2023-05-20T10:47:21.035Z,98477.09
2023-05-20T10:48:32.143Z,98472.50
2023-05-20T10:49:36.105Z,98477.09
2023-05-20T10:50:41.051Z,98473.31
2023-05-20T10:51:47.128Z,98470.09
2023-05-20T10:52:49.014Z,98469.81
2023-05-20T10:53:57.976Z,98479.50
2023-05-20T10:55:01.492Z,98470.59
2023-05-20T10:56:04.062Z,98471.13
2023-05-20T10:57:09.701Z,98464.13
2023-05-20T10:58:12.101Z,98473.00
2023-05-20T10:59:14.303Z,98478.91
2023-05-20T11:00:16.712Z,98463.53
2023-05-20T11:01:19.583Z,98472.47
2023-05-20T11:02:29.205Z,98469.47
2023-05-20T11:03:32.218Z,98465.16
2023-05-20T11:04:34.821Z,98469.47
2023-05-20T11:05:39.640Z,98462.97
2023-05-20T11:06:53.644Z,98462.44
2023-05-20T11:08:20.680Z,98462.44
2023-05-20T11:09:31.429Z,98459.16
2023-05-20T11:10:36.262Z,98457.84
2023-05-20T11:11:38.695Z,98453.25
2023-05-20T11:12:40.642Z,98451.34
2023-05-20T11:13:42.640Z,98452.16
2023-05-20T11:14:44.675Z,98450.25
2023-05-20T11:15:49.882Z,98449.97
2023-05-20T11:16:53.699Z,98449.16
2023-05-20T11:17:57.066Z,98448.91
2023-05-20T11:18:59.255Z,98440.81
2023-05-20T11:20:01.342Z,98434.59
2023-05-20T11:21:03.665Z,98446.72
2023-05-20T11:22:08.461Z,98445.09
2023-05-20T11:23:15.606Z,98446.41
2023-05-20T11:24:27.154Z,98444.53
2023-05-20T11:25:29.898Z,98441.81
2023-05-20T11:26:31.992Z,98446.41
2023-05-20T11:27:34.318Z,98438.31
2023-05-20T11:28:36.679Z,98435.34
2023-05-20T11:29:40.710Z,98437.22
2023-05-20T11:30:43.777Z,98442.63
2023-05-20T11:31:48.580Z,98442.03
2023-05-20T11:33:17.863Z,98432.56
2023-05-20T11:34:25.942Z,98436.34
2023-05-20T11:35:32.300Z,98430.16
2023-05-20T11:36:34.194Z,98430.16
2023-05-20T11:37:37.072Z,98429.66
2023-05-20T11:38:41.918Z,98432.84
2023-05-20T11:39:44.473Z,98423.97
2023-05-20T11:40:56.631Z,98418.28
2023-05-20T11:41:59.233Z,98414.47
2023-05-20T11:43:03.915Z,98418.00
2023-05-20T11:44:14.326Z,98413.41
2023-05-20T11:45:17.393Z,98420.41
2023-05-20T11:46:21.768Z,98423.41
2023-05-20T11:47:29.702Z,98432.00
2023-05-20T11:48:31.784Z,98430.09
2023-05-20T11:49:40.424Z,98423.63
2023-05-20T11:50:45.173Z,98422.81
2023-05-20T11:51:47.079Z,98421.22
2023-05-20T11:52:58.790Z,98417.41
2023-05-20T11:54:07.194Z,98419.03
2023-05-20T11:55:12.239Z,98422.53
2023-05-20T11:56:14.884Z,98427.63
2023-05-20T11:57:16.828Z,98424.13
2023-05-20T11:58:30.210Z,98423.03
2023-05-20T11:59:32.839Z,98421.44
2023-05-20T12:00:49.336Z,98417.13
2023-05-20T12:01:52.427Z,98414.94
2023-05-20T12:02:54.403Z,98408.44
2023-05-20T12:03:57.337Z,98409.53
2023-05-20T12:04:59.558Z,98413.03
2023-05-20T12:06:03.372Z,98403.84
2023-05-20T12:07:09.289Z,98408.44
2023-05-20T12:08:11.400Z,98413.53
2023-05-20T12:09:14.008Z,98417.03
2023-05-20T12:10:16.140Z,98408.94
2023-05-20T12:11:18.312Z,98403.28
2023-05-20T12:12:20.626Z,98411.66
2023-05-20T12:13:24.151Z,98413.28
2023-05-20T12:14:26.264Z,98415.97
2023-05-20T12:15:28.109Z,98415.97
2023-05-20T12:16:33.541Z,98408.69
2023-05-20T12:17:51.121Z,98410.00
2023-05-20T12:18:53.190Z,98405.69
2023-05-20T12:19:55.289Z,98411.88
2023-05-20T12:20:57.227Z,98405.69
2023-05-20T12:21:59.159Z,98400.28
2023-05-20T12:23:02.010Z,98409.19
2023-05-20T12:24:06.847Z,98402.69
2023-05-20T12:25:12.163Z,98400.81
2023-05-20T12:26:14.162Z,98400.00
2023-05-20T12:27:16.029Z,98389.72
2023-05-20T12:28:17.922Z,98391.31
2023-05-20T12:29:19.848Z,98389.72